Phillipstown, Illinois
Current Conditions -  °F | °C
As of 3:15 AM on Saturday 22 Nov 2014 (Local Time) from KCUL Reporting Station
Overcast Overcast  
Wind Chill: 37°   Ceiling: 6500
Heat Index: 42°   Visibility: 10mi
Dew Point: 35°   Wind: 9mph
Humidity: 76%   Direction: 150°SSE
Pressure: 30.23"   Gusts: NA
Location:  38.1681°N, 88.0517°W
Report Text: KCUL 220915Z AUTO 15008KT 10SM OVC065 06/02 A3023 RMK AO2 T00560016
Loading
Personal Weather Stations






























Interactive Weather Map New forecast layout! Learn more

10-Day Weather Forecast

Advertisements
Track Severe Weather on mobile